Time;durP1;ratioP1;P1;durP2;ratioP2;P2;SDS_P1;SDS_P2;PMS_P1;PMS_P2;Temp;Humidity;BMP_temperature;BMP_pressure;BME280_temperature;BME280_humidity;BME280_pressure;Samples;Min_cycle;Max_cycle;Signal;HPM_P1;HPM_P2
2023/08/27 00:00:30;;;;;;;2.17;1.10;;;;;;;19.47;59.34;100952.13;5042764;27;20050;-60
2023/08/27 00:02:59;;;;;;;2.83;0.98;;;;;;;19.47;59.38;100954.84;5043138;27;20045;-58
2023/08/27 00:05:28;;;;;;;3.35;1.50;;;;;;;19.45;59.35;100946.13;5031613;27;20085;-59
2023/08/27 00:07:55;;;;;;;2.47;1.10;;;;;;;19.44;59.38;100931.69;5043002;27;20042;-59
2023/08/27 00:10:23;;;;;;;2.25;1.08;;;;;;;19.41;59.40;100918.63;5050404;27;20046;-59
2023/08/27 00:12:51;;;;;;;2.33;0.95;;;;;;;19.41;59.43;100915.09;5053241;27;20043;-59
2023/08/27 00:15:19;;;;;;;3.08;1.10;;;;;;;19.40;59.50;100902.56;5063999;27;20505;-58
2023/08/27 00:17:47;;;;;;;2.47;1.10;;;;;;;19.35;59.44;100886.22;5051457;27;20054;-59
2023/08/27 00:20:17;;;;;;;1.75;1.10;;;;;;;19.37;59.35;100881.31;5040861;27;20073;-59
2023/08/27 00:22:45;;;;;;;1.52;1.13;;;;;;;19.37;59.60;100881.31;5063200;27;20046;-59
2023/08/27 00:25:12;;;;;;;3.22;1.52;;;;;;;19.35;59.66;100872.59;5068952;27;20071;-60
2023/08/27 00:27:40;;;;;;;1.45;1.17;;;;;;;19.33;59.63;100875.59;5045993;27;20149;-60
2023/08/27 00:30:09;;;;;;;3.55;1.35;;;;;;;19.33;59.60;100872.88;5047132;27;20075;-59
2023/08/27 00:32:37;;;;;;;1.95;1.27;;;;;;;19.33;59.58;100863.88;5052600;27;20045;-59
2023/08/27 00:35:06;;;;;;;1.55;1.08;;;;;;;19.31;59.52;100855.97;5050974;27;20079;-59
2023/08/27 00:37:35;;;;;;;1.20;0.85;;;;;;;19.31;59.43;100852.44;5056036;27;20046;-58
2023/08/27 00:40:04;;;;;;;2.33;1.23;;;;;;;19.30;59.72;100850.81;5084495;27;20152;-59
2023/08/27 00:42:32;;;;;;;1.55;1.20;;;;;;;19.29;59.70;100852.72;5038554;28;20076;-58
2023/08/27 00:44:59;;;;;;;1.42;0.98;;;;;;;19.21;59.74;100836.13;5056845;27;20053;-59
2023/08/27 00:47:28;;;;;;;2.05;1.00;;;;;;;19.28;59.76;100850.28;5062098;27;20056;-59
2023/08/27 00:49:56;;;;;;;1.30;1.13;;;;;;;19.26;59.95;100863.38;5062977;27;20134;-58
2023/08/27 00:52:24;;;;;;;1.75;1.00;;;;;;;19.25;59.87;100850.84;5087247;27;20096;-59
2023/08/27 00:54:56;;;;;;;1.70;1.13;;;;;;;19.26;59.79;100844.28;5052490;27;20041;-58
2023/08/27 00:57:24;;;;;;;1.27;0.90;;;;;;;19.24;59.90;100841.84;5051823;27;20075;-60
2023/08/27 00:59:52;;;;;;;2.15;1.20;;;;;;;19.24;60.10;100838.31;5062819;27;20054;-58
2023/08/27 01:02:20;;;;;;;3.40;1.08;;;;;;;19.23;60.20;100831.22;5089833;27;20082;-58
2023/08/27 01:04:48;;;;;;;1.70;1.10;;;;;;;19.22;60.26;100833.13;5076992;27;20476;-59
2023/08/27 01:07:20;;;;;;;1.80;0.80;;;;;;;19.19;60.02;100833.69;5065031;27;20047;-58
2023/08/27 01:09:58;;;;;;;2.67;0.95;;;;;;;19.18;60.18;100827.44;5063228;27;20054;-59
2023/08/27 01:12:36;;;;;;;1.17;0.93;;;;;;;19.18;60.33;100815.72;5056180;27;20074;-59
2023/08/27 01:15:08;;;;;;;2.20;1.38;;;;;;;19.16;60.11;100829.63;5040266;27;20106;-59
2023/08/27 01:17:37;;;;;;;3.17;1.17;;;;;;;19.15;60.09;100821.72;5039613;27;20126;-59
2023/08/27 01:20:09;;;;;;;1.67;1.00;;;;;;;19.14;59.99;100825.53;5042260;27;20080;-59
2023/08/27 01:22:38;;;;;;;1.45;1.15;;;;;;;19.12;60.07;100825.81;5046033;27;20152;-59
2023/08/27 01:25:08;;;;;;;1.92;1.02;;;;;;;19.11;60.07;100821.47;5053730;27;20580;-58
2023/08/27 01:27:44;;;;;;;3.05;1.00;;;;;;;19.10;60.27;100821.75;5075797;27;20061;-58
2023/08/27 01:30:18;;;;;;;0.80;0.75;;;;;;;19.09;60.17;100825.56;5042297;27;20053;-59
2023/08/27 01:32:50;;;;;;;2.78;1.38;;;;;;;19.07;59.98;100820.41;5064075;27;20062;-59
2023/08/27 01:35:18;;;;;;;0.93;0.73;;;;;;;19.07;60.15;100816.84;5046436;27;20109;-60
2023/08/27 01:37:48;;;;;;;3.20;1.08;;;;;;;19.05;60.10;100819.06;5039104;28;20045;-58
2023/08/27 01:40:18;;;;;;;3.90;1.35;;;;;;;19.04;60.23;100817.44;5089608;27;20106;-59
2023/08/27 01:42:48;;;;;;;2.38;0.90;;;;;;;19.02;60.29;100825.91;5061069;27;20047;-59
2023/08/27 01:45:17;;;;;;;2.92;0.95;;;;;;;19.02;60.26;100822.34;5054158;27;20098;-58
2023/08/27 01:47:45;;;;;;;1.45;0.90;;;;;;;19.01;60.37;100824.25;5042054;27;20153;-58
2023/08/27 01:50:13;;;;;;;2.38;1.35;;;;;;;19.00;60.16;100822.63;5070136;27;20116;-57
2023/08/27 01:52:41;;;;;;;3.47;1.05;;;;;;;19.00;60.29;100825.34;5056665;27;20067;-58
2023/08/27 01:55:10;;;;;;;1.60;0.90;;;;;;;18.99;60.33;100822.91;5038838;28;20102;-59
2023/08/27 01:57:39;;;;;;;1.13;1.00;;;;;;;18.97;60.36;100822.38;5045708;27;20083;-58
2023/08/27 02:00:09;;;;;;;1.75;1.10;;;;;;;18.96;60.33;100818.03;5071826;27;20053;-60
2023/08/27 02:02:37;;;;;;;2.53;1.10;;;;;;;18.95;60.29;100809.03;5076158;27;20052;-58
2023/08/27 02:05:06;;;;;;;1.70;1.10;;;;;;;18.87;60.47;100800.63;5050458;27;20140;-59
2023/08/27 02:07:37;;;;;;;2.55;1.35;;;;;;;18.93;60.58;100824.84;5052372;27;20049;-58
2023/08/27 02:10:06;;;;;;;1.75;0.90;;;;;;;18.92;60.63;100822.41;5048993;27;20045;-59
2023/08/27 02:12:36;;;;;;;3.35;1.35;;;;;;;18.85;60.75;100820.78;5045845;27;20574;-59
2023/08/27 02:15:06;;;;;;;1.40;0.98;;;;;;;18.91;60.47;100826.22;5054300;27;20071;-59
2023/08/27 02:17:34;;;;;;;0.98;0.65;;;;;;;18.89;60.61;100825.66;5075064;27;20112;-59
2023/08/27 02:20:06;;;;;;;3.45;1.40;;;;;;;18.88;60.59;100824.84;5046523;28;20045;-59
2023/08/27 02:22:34;;;;;;;1.52;0.85;;;;;;;18.87;60.36;100822.41;5059041;28;20041;-59
2023/08/27 02:25:03;;;;;;;3.47;1.33;;;;;;;18.87;60.62;100830.59;5060735;28;20102;-59
2023/08/27 02:27:30;;;;;;;1.73;0.93;;;;;;;18.81;60.62;100832.50;5053751;27;20043;-60
2023/08/27 02:30:00;;;;;;;2.03;1.17;;;;;;;18.85;60.57;100823.50;5064063;27;20081;-58
2023/08/27 02:32:28;;;;;;;6.13;1.85;;;;;;;18.82;60.72;100824.06;5040629;27;20114;-58
2023/08/27 02:34:56;;;;;;;2.65;1.42;;;;;;;18.80;60.77;100831.69;5048124;28;20049;-59
2023/08/27 02:37:24;;;;;;;2.92;1.48;;;;;;;18.79;60.61;100840.13;5074759;28;20045;-58
2023/08/27 02:39:52;;;;;;;2.63;1.35;;;;;;;18.77;60.65;100840.41;5054240;28;20083;-58
2023/08/27 02:42:20;;;;;;;4.85;1.48;;;;;;;18.76;60.73;100835.25;5046067;28;20046;-59
2023/08/27 02:44:48;;;;;;;3.35;1.48;;;;;;;18.75;61.04;100839.88;5051073;28;20063;-59
2023/08/27 02:47:17;;;;;;;1.67;0.98;;;;;;;18.76;61.03;100832.50;5057448;28;20090;-59
2023/08/27 02:49:45;;;;;;;1.45;1.00;;;;;;;18.74;60.94;100827.34;5035547;28;20094;-59
2023/08/27 02:52:13;;;;;;;1.88;1.23;;;;;;;18.73;60.94;100833.88;5047755;28;20054;-59
2023/08/27 02:54:41;;;;;;;5.00;1.20;;;;;;;18.74;60.78;100826.53;5043968;28;20075;-59
2023/08/27 02:57:09;;;;;;;2.10;1.00;;;;;;;18.73;60.96;100814.81;5056680;28;20057;-59
2023/08/27 02:59:36;;;;;;;2.35;1.10;;;;;;;18.72;61.24;100812.38;5068442;28;20044;-59
2023/08/27 03:02:04;;;;;;;3.83;1.35;;;;;;;18.72;60.89;100812.38;5054570;27;20045;-59
2023/08/27 03:04:34;;;;;;;1.75;0.98;;;;;;;18.70;61.16;100820.81;5050463;27;20088;-59
2023/08/27 03:07:01;;;;;;;2.25;1.15;;;;;;;18.70;61.16;100826.28;5042019;27;20532;-59
2023/08/27 03:09:29;;;;;;;3.17;1.20;;;;;;;18.68;61.29;100823.00;5043882;27;20050;-59
2023/08/27 03:11:57;;;;;;;2.28;1.00;;;;;;;18.69;61.14;100827.38;5054241;27;20096;-58
2023/08/27 03:14:25;;;;;;;1.92;1.15;;;;;;;18.68;61.21;100825.72;5050114;27;20041;-59
2023/08/27 03:16:53;;;;;;;3.03;1.08;;;;;;;18.68;61.15;100827.63;5050037;27;20058;-58
2023/08/27 03:19:21;;;;;;;2.17;0.98;;;;;;;18.68;61.05;100838.53;5061449;27;20041;-60
2023/08/27 03:21:50;;;;;;;3.42;1.30;;;;;;;18.66;61.23;100830.63;5051674;27;20110;-60
2023/08/27 03:24:18;;;;;;;2.85;1.00;;;;;;;18.66;61.19;100843.44;5051573;27;20094;-60
2023/08/27 03:26:46;;;;;;;3.92;1.20;;;;;;;18.66;61.16;100848.88;5050290;27;20191;-59
2023/08/27 03:29:14;;;;;;;3.50;1.05;;;;;;;18.64;61.18;100843.72;5041202;27;20140;-59
2023/08/27 03:31:42;;;;;;;3.42;1.20;;;;;;;18.64;61.38;100842.91;5044325;27;20053;-58
2023/08/27 03:34:09;;;;;;;3.75;1.27;;;;;;;18.63;61.43;100833.91;5068096;27;20095;-59
2023/08/27 03:36:37;;;;;;;2.55;1.30;;;;;;;18.62;61.38;100815.13;5045593;27;20482;-58
2023/08/27 03:39:08;;;;;;;1.55;0.77;;;;;;;18.61;61.36;100813.50;5062220;27;20050;-59
2023/08/27 03:41:36;;;;;;;2.78;1.00;;;;;;;18.60;61.34;100809.13;5049033;27;20042;-59
2023/08/27 03:44:04;;;;;;;3.80;1.30;;;;;;;18.59;61.43;100805.56;5047068;27;20071;-59
2023/08/27 03:46:33;;;;;;;2.60;1.20;;;;;;;18.59;61.61;100800.13;5042589;27;20045;-58
2023/08/27 03:49:01;;;;;;;3.70;1.55;;;;;;;18.58;61.53;100798.50;5047729;27;20075;-58
2023/08/27 03:51:29;;;;;;;4.18;1.27;;;;;;;18.57;61.73;100799.59;5065363;27;20107;-60
2023/08/27 03:53:58;;;;;;;2.65;1.15;;;;;;;18.57;61.79;100793.34;5044783;27;20144;-58
2023/08/27 03:56:28;;;;;;;5.05;1.60;;;;;;;18.55;61.74;100793.63;5050563;27;20046;-58
2023/08/27 03:58:56;;;;;;;1.98;0.95;;;;;;;18.56;61.81;100787.06;5043722;27;20057;-59
2023/08/27 04:01:24;;;;;;;2.88;1.63;;;;;;;18.53;61.71;100788.44;5059579;27;20057;-59
2023/08/27 04:03:53;;;;;;;2.13;1.10;;;;;;;18.54;61.72;100790.06;5039155;28;20094;-59
2023/08/27 04:06:21;;;;;;;2.33;1.20;;;;;;;18.54;61.95;100789.25;5033635;27;20054;-58
2023/08/27 04:08:49;;;;;;;2.90;1.20;;;;;;;18.52;62.07;100781.38;5042359;27;20045;-58
2023/08/27 04:11:17;;;;;;;3.17;1.38;;;;;;;18.52;61.88;100777.84;5065293;27;20079;-59
2023/08/27 04:13:46;;;;;;;3.17;1.20;;;;;;;18.51;62.09;100785.19;5042773;27;20067;-59
2023/08/27 04:16:14;;;;;;;3.17;1.30;;;;;;;18.51;62.07;100787.91;5045237;27;20072;-60
2023/08/27 04:18:42;;;;;;;2.05;0.90;;;;;;;18.50;62.03;100799.06;5093979;27;20081;-60
2023/08/27 04:21:10;;;;;;;2.08;1.10;;;;;;;18.50;61.87;100801.78;5076643;27;20052;-58
2023/08/27 04:23:38;;;;;;;4.97;1.30;;;;;;;18.48;62.08;100806.69;5051909;27;20091;-58
2023/08/27 04:26:06;;;;;;;3.78;1.60;;;;;;;18.46;62.17;100798.00;5041794;28;20041;-58
2023/08/27 04:28:33;;;;;;;3.28;1.60;;;;;;;18.46;62.01;100806.16;5059369;27;20053;-58
2023/08/27 04:31:03;;;;;;;3.65;1.58;;;;;;;18.45;62.07;100809.97;5039449;27;20046;-58
2023/08/27 04:33:32;;;;;;;3.00;1.27;;;;;;;18.45;62.22;100812.69;5040774;28;20064;-59
2023/08/27 04:36:00;;;;;;;2.50;1.25;;;;;;;18.44;62.17;100802.88;5046631;27;20049;-59
2023/08/27 04:38:28;;;;;;;2.13;1.25;;;;;;;18.45;62.08;100804.53;5048538;27;20270;-59
2023/08/27 04:40:56;;;;;;;2.88;1.10;;;;;;;18.44;62.15;100800.97;5049371;27;20384;-59
2023/08/27 04:43:23;;;;;;;4.70;1.55;;;;;;;18.43;62.03;100802.06;5040425;27;20126;-58
2023/08/27 04:45:52;;;;;;;3.78;1.65;;;;;;;18.42;61.95;100797.72;5042129;27;20052;-59
2023/08/27 04:48:22;;;;;;;2.38;1.25;;;;;;;18.41;61.98;100793.38;5036280;28;20057;-58
2023/08/27 04:50:50;;;;;;;1.45;0.85;;;;;;;18.42;62.11;100796.91;5031581;27;20046;-59
2023/08/27 04:53:19;;;;;;;2.78;1.15;;;;;;;18.41;62.22;100806.16;5036054;28;20057;-58
2023/08/27 04:55:48;;;;;;;3.08;1.40;;;;;;;18.41;62.41;100808.88;5049631;27;20047;-58
2023/08/27 04:58:16;;;;;;;2.97;1.30;;;;;;;18.40;62.22;100807.25;5063780;27;20143;-59
2023/08/27 05:00:44;;;;;;;3.80;1.33;;;;;;;18.40;62.15;100818.13;5038319;27;20491;-58
2023/08/27 05:03:12;;;;;;;3.60;1.80;;;;;;;18.34;62.26;100808.34;5041510;27;20053;-59
2023/08/27 05:05:41;;;;;;;3.63;1.35;;;;;;;18.40;61.98;100829.03;5042600;27;20042;-59
2023/08/27 05:08:09;;;;;;;3.90;1.48;;;;;;;18.39;62.28;100824.66;5030539;28;20056;-59
2023/08/27 05:10:37;;;;;;;2.85;1.50;;;;;;;18.38;62.21;100821.13;4706169;27;10001218;-58
2023/08/27 05:13:06;;;;;;;2.75;1.55;;;;;;;18.37;62.32;100814.06;5043810;27;20067;-59
2023/08/27 05:15:33;;;;;;;4.30;1.42;;;;;;;18.37;62.37;100819.50;5038994;28;20050;-59
2023/08/27 05:18:03;;;;;;;9.60;1.30;;;;;;;18.37;62.27;100816.78;5036505;27;20050;-59
2023/08/27 05:20:31;;;;;;;5.20;1.20;;;;;;;18.36;62.20;100820.59;5046992;27;20093;-60
2023/08/27 05:23:01;;;;;;;2.55;1.38;;;;;;;18.36;62.39;100817.88;5036925;28;20066;-59
2023/08/27 05:25:29;;;;;;;2.30;1.23;;;;;;;18.36;62.44;100814.34;5044242;27;20089;-58
2023/08/27 05:27:57;;;;;;;2.53;1.30;;;;;;;18.35;62.28;100818.97;5043526;27;20122;-59
2023/08/27 05:30:25;;;;;;;4.03;1.45;;;;;;;18.34;62.51;100819.22;5042872;27;20375;-59
2023/08/27 05:32:54;;;;;;;3.08;1.48;;;;;;;18.34;62.55;100819.22;5064379;27;20047;-60
2023/08/27 05:35:22;;;;;;;2.45;1.13;;;;;;;18.33;62.51;100810.25;5054404;27;20077;-59
2023/08/27 05:37:50;;;;;;;1.90;1.10;;;;;;;18.33;62.45;100815.69;5042063;27;20057;-60
2023/08/27 05:40:19;;;;;;;2.25;1.20;;;;;;;18.32;62.39;100816.78;5049056;27;20497;-60
2023/08/27 05:42:47;;;;;;;3.28;1.17;;;;;;;18.26;62.29;100808.91;5053252;27;20082;-65
2023/08/27 05:45:15;;;;;;;4.05;1.60;;;;;;;18.32;62.23;100816.78;5057845;27;20055;-60
2023/08/27 05:47:43;;;;;;;2.45;1.20;;;;;;;18.33;62.40;100814.88;5069971;27;20043;-60
2023/08/27 05:50:11;;;;;;;3.92;1.40;;;;;;;18.32;62.30;100813.25;5052079;27;20069;-61
2023/08/27 05:52:39;;;;;;;3.30;1.45;;;;;;;18.31;62.25;100815.16;5044075;27;20046;-59
2023/08/27 05:55:08;;;;;;;3.95;1.35;;;;;;;18.31;62.30;100811.63;5042111;27;20043;-60
2023/08/27 05:57:37;;;;;;;1.70;1.45;;;;;;;18.30;62.25;100815.44;5047710;27;20571;-60
2023/08/27 06:00:09;;;;;;;2.47;1.23;;;;;;;18.30;62.50;100815.44;5040129;27;20100;-62
2023/08/27 06:02:37;;;;;;;2.80;1.45;;;;;;;18.29;62.06;100811.88;5031201;28;20050;-61
2023/08/27 06:05:06;;;;;;;4.22;1.50;;;;;;;18.29;62.18;100811.06;5035031;28;20041;-61
2023/08/27 06:07:33;;;;;;;3.20;1.85;;;;;;;18.30;62.35;100807.25;5027046;28;20049;-61
2023/08/27 06:10:02;;;;;;;1.45;0.98;;;;;;;18.28;62.34;100799.38;5033947;28;20052;-61
2023/08/27 06:12:29;;;;;;;2.88;1.40;;;;;;;18.27;62.42;100802.38;5035615;28;20049;-60
2023/08/27 06:14:59;;;;;;;3.20;1.50;;;;;;;18.28;62.49;100804.81;5052956;27;20094;-62
2023/08/27 06:17:27;;;;;;;4.57;2.13;;;;;;;18.24;62.36;100806.44;5042492;27;20049;-60
2023/08/27 06:19:55;;;;;;;4.55;2.33;;;;;;;18.24;63.45;100802.91;5068950;27;20463;-60
2023/08/27 06:22:23;;;;;;;4.65;1.60;;;;;;;18.24;63.23;100803.72;5034068;28;20118;-60
2023/08/27 06:24:51;;;;;;;3.25;1.58;;;;;;;18.25;63.34;100799.09;5032652;28;20129;-61
2023/08/27 06:27:19;;;;;;;4.85;1.60;;;;;;;18.28;63.10;100799.38;5038409;28;20049;-60
2023/08/27 06:29:47;;;;;;;3.35;1.52;;;;;;;18.29;62.95;100801.00;5037710;28;20167;-60
2023/08/27 06:32:16;;;;;;;3.05;1.60;;;;;;;18.31;63.02;100798.81;5037184;28;20061;-59
2023/08/27 06:34:44;;;;;;;3.28;1.42;;;;;;;18.33;62.89;100801.28;5039976;28;20046;-59
2023/08/27 06:37:12;;;;;;;4.43;1.63;;;;;;;18.33;62.54;100793.13;5056271;28;20053;-60
2023/08/27 06:39:40;;;;;;;4.38;1.30;;;;;;;18.33;62.67;100804.81;5039747;28;20050;-60
2023/08/27 06:42:08;;;;;;;2.80;1.58;;;;;;;18.33;62.57;100807.53;5048308;28;20118;-59
2023/08/27 06:44:36;;;;;;;2.88;1.30;;;;;;;18.32;62.58;100803.19;5031847;28;20052;-59
2023/08/27 06:47:04;;;;;;;4.25;1.50;;;;;;;18.32;62.66;100802.38;5043382;28;20086;-59
2023/08/27 06:49:34;;;;;;;5.22;1.50;;;;;;;18.31;62.67;100801.53;5050926;27;20061;-60
2023/08/27 06:52:01;;;;;;;5.22;1.80;;;;;;;18.33;62.73;100809.44;5042887;28;20078;-59
2023/08/27 06:54:29;;;;;;;2.33;1.48;;;;;;;18.34;62.85;100801.00;5043956;27;20045;-61
2023/08/27 06:56:57;;;;;;;5.75;1.50;;;;;;;18.40;63.27;100799.09;5034439;28;20069;-62
2023/08/27 06:59:25;;;;;;;2.60;1.40;;;;;;;18.39;63.09;100802.91;5053016;28;20125;-61
2023/08/27 07:01:53;;;;;;;5.20;1.75;;;;;;;18.39;63.08;100805.63;5034821;27;20064;-61
2023/08/27 07:04:21;;;;;;;2.72;1.30;;;;;;;18.40;62.85;100809.97;5046386;28;20053;-62
2023/08/27 07:06:50;;;;;;;3.20;1.52;;;;;;;18.42;63.00;100808.59;5046534;28;20045;-62
2023/08/27 07:09:18;;;;;;;1.70;1.10;;;;;;;18.44;62.93;100806.44;5042574;28;20079;-59
2023/08/27 07:11:46;;;;;;;3.97;1.55;;;;;;;18.48;63.08;100814.84;5045622;28;20049;-60
2023/08/27 07:14:14;;;;;;;5.07;1.90;;;;;;;18.49;62.91;100811.03;5037846;28;20053;-60
2023/08/27 07:16:42;;;;;;;4.53;1.40;;;;;;;18.51;63.09;100814.31;5042275;28;20041;-60
2023/08/27 07:19:10;;;;;;;3.55;1.70;;;;;;;18.52;63.11;100815.94;5047003;27;20057;-59
2023/08/27 07:21:39;;;;;;;1.80;1.30;;;;;;;18.54;63.11;100811.03;5059701;27;20077;-60
2023/08/27 07:24:08;;;;;;;2.47;1.48;;;;;;;18.54;63.19;100811.84;5041706;28;20074;-61
2023/08/27 07:26:36;;;;;;;5.05;2.10;;;;;;;18.56;63.20;100806.13;5037009;28;20118;-61
2023/08/27 07:29:04;;;;;;;3.55;1.40;;;;;;;18.56;63.43;100808.84;5039430;28;20261;-61
2023/08/27 07:31:32;;;;;;;3.13;1.63;;;;;;;18.58;63.57;100812.13;5037971;27;20053;-61
2023/08/27 07:34:00;;;;;;;4.38;1.90;;;;;;;18.57;63.41;100810.47;5041548;28;20094;-60
2023/08/27 07:36:28;;;;;;;3.88;1.40;;;;;;;18.60;63.44;100812.66;5037635;27;20056;-60
2023/08/27 07:38:57;;;;;;;3.17;1.77;;;;;;;18.77;63.97;100815.91;5046383;28;20049;-61
2023/08/27 07:41:26;;;;;;;4.45;1.40;;;;;;;18.72;63.48;100809.66;5036476;28;20050;-60
2023/08/27 07:43:55;;;;;;;2.53;1.33;;;;;;;18.71;63.51;100819.72;5055082;27;20049;-60
2023/08/27 07:46:24;;;;;;;5.35;1.65;;;;;;;18.73;63.73;100816.72;5054209;27;20049;-60
2023/08/27 07:48:52;;;;;;;2.92;1.60;;;;;;;18.78;64.10;100811.28;5050737;27;20048;-60
2023/08/27 07:51:20;;;;;;;2.47;1.42;;;;;;;18.83;64.62;100814.78;5041719;27;20053;-60
2023/08/27 07:56:25;;;;;;;2.75;1.40;;;;;;;18.87;64.54;100812.34;3794151;28;9999841;-61
2023/08/27 07:58:54;;;;;;;4.35;1.50;;;;;;;18.93;64.46;100810.41;5095199;28;20052;-61
2023/08/27 08:01:22;;;;;;;3.00;1.63;;;;;;;18.87;64.28;100803.34;5099797;28;20059;-61
2023/08/27 08:03:50;;;;;;;2.50;1.58;;;;;;;18.82;64.15;100802.28;5099200;28;20188;-60
2023/08/27 08:06:18;;;;;;;2.70;1.50;;;;;;;18.88;64.58;100803.06;5100357;28;20070;-61
2023/08/27 08:08:46;;;;;;;4.45;2.03;;;;;;;19.07;64.68;100805.97;5093874;28;20055;-62
2023/08/27 08:11:14;;;;;;;4.53;1.48;;;;;;;18.96;63.88;100801.69;5099403;28;20422;-61
2023/08/27 08:13:43;;;;;;;2.80;2.10;;;;;;;18.96;64.07;100801.69;5096773;28;20055;-60
2023/08/27 08:16:12;;;;;;;3.78;1.60;;;;;;;18.91;63.75;100807.97;5092255;28;20051;-62
2023/08/27 08:18:40;;;;;;;4.57;1.95;;;;;;;18.94;64.25;100804.69;5091798;28;20047;-61
2023/08/27 08:21:08;;;;;;;4.10;1.98;;;;;;;18.90;64.09;100819.13;5093273;28;20152;-61
2023/08/27 08:23:36;;;;;;;4.35;1.52;;;;;;;18.87;63.87;100806.88;5092472;28;20123;-60
2023/08/27 08:26:05;;;;;;;3.58;1.80;;;;;;;18.87;64.24;100814.25;5095332;28;20040;-61
2023/08/27 08:28:34;;;;;;;5.65;1.90;;;;;;;18.92;64.80;100816.94;5094583;28;20048;-61
2023/08/27 08:31:03;;;;;;;4.78;1.70;;;;;;;18.94;64.41;100825.66;5095901;28;20044;-61
2023/08/27 08:33:32;;;;;;;6.03;1.95;;;;;;;19.01;64.83;100823.44;5092570;28;20147;-61
2023/08/27 08:36:00;;;;;;;4.22;2.00;;;;;;;19.36;63.97;100820.53;5092349;28;20378;-61
2023/08/27 08:38:28;;;;;;;4.80;1.60;;;;;;;19.25;63.53;100821.69;5090714;28;20094;-61
2023/08/27 08:41:00;;;;;;;3.60;1.63;;;;;;;19.14;64.16;100820.09;5094514;28;20056;-61
2023/08/27 08:43:33;;;;;;;4.90;2.05;;;;;;;19.13;64.54;100827.44;5093303;28;20052;-61
2023/08/27 08:46:04;;;;;;;3.67;1.50;;;;;;;19.18;64.81;100821.16;5089174;28;20040;-61
2023/08/27 08:48:39;;;;;;;4.22;1.58;;;;;;;19.38;64.14;100818.34;5092624;28;20052;-60
2023/08/27 08:51:11;;;;;;;2.38;1.30;;;;;;;19.24;64.19;100821.97;5088471;28;20052;-61
2023/08/27 08:53:41;;;;;;;3.85;1.60;;;;;;;19.21;63.86;100820.59;5092949;28;20119;-61
2023/08/27 08:56:13;;;;;;;5.50;2.28;;;;;;;19.22;64.29;100819.50;5094712;28;20059;-61
2023/08/27 08:58:45;;;;;;;6.13;1.60;;;;;;;19.17;64.19;100812.19;5094402;28;20376;-61
2023/08/27 09:01:15;;;;;;;5.43;1.70;;;;;;;19.36;63.92;100811.53;5094913;28;20052;-61
2023/08/27 09:03:47;;;;;;;2.42;1.20;;;;;;;19.64;62.77;100805.41;5091533;28;20097;-61
2023/08/27 09:06:17;;;;;;;3.53;1.30;;;;;;;19.45;63.39;100802.50;5096072;28;20133;-61
2023/08/27 09:08:46;;;;;;;3.47;1.63;;;;;;;19.73;62.37;100791.97;5090957;28;20054;-61
2023/08/27 09:11:17;;;;;;;3.60;1.55;;;;;;;19.58;62.74;100800.25;5089442;28;20048;-61
2023/08/27 09:13:44;;;;;;;5.32;1.80;;;;;;;19.39;63.23;100800.06;5090854;28;20040;-60
2023/08/27 09:16:12;;;;;;;5.03;1.30;;;;;;;19.32;63.47;100797.66;5094540;28;20097;-60
2023/08/27 09:18:41;;;;;;;3.33;1.45;;;;;;;19.37;63.12;100792.19;5091443;28;20040;-60
2023/08/27 09:21:10;;;;;;;3.53;1.38;;;;;;;19.29;63.50;100794.69;5095279;28;20130;-61
2023/08/27 09:23:38;;;;;;;3.72;1.55;;;;;;;19.23;63.60;100796.63;5093824;28;20055;-60
2023/08/27 09:26:08;;;;;;;3.05;1.90;;;;;;;19.22;63.53;100792.25;5094503;28;20054;-60
2023/08/27 09:28:36;;;;;;;2.90;1.35;;;;;;;19.29;63.05;100779.16;5095553;28;20056;-60
2023/08/27 09:31:04;;;;;;;4.07;1.70;;;;;;;19.23;63.48;100782.19;5094677;28;20048;-61
2023/08/27 09:33:36;;;;;;;3.58;1.35;;;;;;;19.18;63.37;100772.13;5091036;28;20044;-60
2023/08/27 09:36:06;;;;;;;5.78;1.60;;;;;;;19.19;63.58;100765.59;5091425;28;20044;-61
2023/08/27 09:38:35;;;;;;;8.70;2.40;;;;;;;19.30;63.41;100767.16;5090933;28;20048;-62
2023/08/27 09:41:15;;;;;;;4.00;1.55;;;;;;;19.50;62.62;100752.56;5097137;28;20558;-62
2023/08/27 09:43:50;;;;;;;5.25;1.50;;;;;;;19.91;61.59;100765.94;5091326;28;20233;-62
2023/08/27 09:46:18;;;;;;;4.07;1.42;;;;;;;19.65;62.43;100770.78;5095408;28;20044;-63
2023/08/27 09:48:57;;;;;;;7.20;1.90;;;;;;;19.68;62.19;100764.75;5088233;28;20113;-62
2023/08/27 09:51:26;;;;;;;2.72;1.38;;;;;;;19.86;61.98;100769.50;5089259;28;20182;-61
2023/08/27 09:53:56;;;;;;;5.75;1.30;;;;;;;19.98;61.42;100760.94;5091183;28;20118;-62
2023/08/27 09:56:25;;;;;;;8.57;2.08;;;;;;;19.74;62.21;100763.59;5093960;28;20056;-62
2023/08/27 09:58:54;;;;;;;4.03;1.80;;;;;;;19.59;62.34;100761.81;5092068;28;20044;-62
2023/08/27 10:01:23;;;;;;;3.17;1.38;;;;;;;19.85;61.68;100756.16;5092372;28;20066;-61
2023/08/27 10:03:51;;;;;;;5.80;1.73;;;;;;;20.08;61.06;100761.69;5091872;28;20508;-62
2023/08/27 10:06:19;;;;;;;5.60;1.42;;;;;;;19.77;61.40;100769.31;5092789;28;20398;-61
2023/08/27 10:08:50;;;;;;;6.80;1.55;;;;;;;19.60;60.30;100770.81;5092114;28;20055;-61
2023/08/27 10:11:23;;;;;;;3.78;1.50;;;;;;;19.87;58.99;100775.78;5092380;28;20044;-61
2023/08/27 10:13:51;;;;;;;4.95;1.33;;;;;;;19.83;59.54;100775.53;5091590;28;20056;-62
2023/08/27 10:16:19;;;;;;;4.13;1.38;;;;;;;19.96;59.29;100752.25;5095336;28;20066;-61
2023/08/27 10:18:47;;;;;;;7.35;1.67;;;;;;;20.21;58.66;100764.84;5094203;28;20043;-61
2023/08/27 10:21:15;;;;;;;3.53;1.83;;;;;;;19.92;59.70;100771.09;5093411;28;20048;-62
2023/08/27 10:23:43;;;;;;;5.60;1.60;;;;;;;19.75;60.28;100765.25;5093712;28;20052;-62
2023/08/27 10:26:12;;;;;;;5.80;1.75;;;;;;;19.92;60.63;100773.00;5099235;28;20051;-62
2023/08/27 10:28:42;;;;;;;4.80;1.48;;;;;;;19.97;61.28;100773.78;5097102;28;20047;-62
2023/08/27 10:31:09;;;;;;;5.40;2.13;;;;;;;19.94;60.53;100774.34;5094844;28;20111;-62
2023/08/27 10:33:37;;;;;;;5.88;2.15;;;;;;;19.97;60.75;100773.78;5091720;28;20051;-62
2023/08/27 10:36:11;;;;;;;6.35;1.92;;;;;;;19.79;61.29;100775.28;5097871;28;20145;-62
2023/08/27 10:38:40;;;;;;;4.43;1.40;;;;;;;19.72;61.44;100768.53;5097120;28;20097;-62
2023/08/27 10:41:08;;;;;;;3.60;1.50;;;;;;;19.64;61.82;100774.59;5094898;28;20105;-63
2023/08/27 10:43:36;;;;;;;3.67;1.42;;;;;;;19.59;61.77;100772.72;5095771;28;20074;-63
2023/08/27 10:46:14;;;;;;;6.10;1.60;;;;;;;19.65;61.87;100770.78;5093727;28;20412;-63
2023/08/27 10:48:48;;;;;;;6.20;1.55;;;;;;;19.60;61.91;100771.63;5096787;28;20112;-63
2023/08/27 10:51:18;;;;;;;4.43;1.50;;;;;;;19.62;62.07;100763.97;5094258;28;20059;-63
2023/08/27 10:53:59;;;;;;;4.60;1.10;;;;;;;19.57;62.03;100753.09;5098873;28;20238;-63
2023/08/27 10:56:37;;;;;;;5.15;2.15;;;;;;;19.82;61.47;100763.81;5099538;28;20048;-64
2023/08/27 10:59:09;;;;;;;7.00;1.23;;;;;;;20.04;60.47;100757.06;5094063;28;20152;-63
2023/08/27 11:01:59;;;;;;;10.85;1.33;;;;;;;19.98;61.01;100761.75;5097836;28;20048;-59
2023/08/27 11:04:35;;;;;;;3.40;1.45;;;;;;;19.94;59.97;100754.44;5094055;28;20192;-61
2023/08/27 11:07:08;;;;;;;;;;;;;;;19.94;56.37;100759.91;5097688;28;20048;-60
2023/08/27 11:09:44;;;;;;;6.07;1.60;;;;;;;19.74;56.98;100761.69;5095636;28;20109;-63
2023/08/27 11:12:20;;;;;;;;;;;;;;;19.59;57.33;100753.63;5096476;28;20089;-63
2023/08/27 11:14:48;;;;;;;4.20;1.30;;;;;;;19.48;57.62;100750.13;5094347;28;19924;-61
2023/08/27 11:17:26;;;;;;;5.25;1.38;;;;;;;19.40;57.88;100749.91;5095358;28;20156;-62
2023/08/27 11:19:55;;;;;;;3.97;1.48;;;;;;;19.48;58.04;100771.94;5098128;28;20048;-63
2023/08/27 11:22:24;;;;;;;6.65;1.42;;;;;;;19.46;58.20;100765.13;5098089;28;20048;-63
2023/08/27 11:24:53;;;;;;;6.45;1.30;;;;;;;19.43;58.25;100763.78;5094589;28;20131;-63
2023/08/27 11:27:22;;;;;;;6.47;1.50;;;;;;;19.47;58.49;100781.22;5103589;28;20053;-63
2023/08/27 11:29:52;;;;;;;5.95;1.73;;;;;;;19.48;58.05;100771.94;5099065;28;20074;-62
2023/08/27 11:32:21;;;;;;;4.00;1.60;;;;;;;19.46;58.31;100776.84;5096490;28;20138;-62
2023/08/27 11:34:52;;;;;;;4.88;1.30;;;;;;;19.45;58.42;100786.13;5102178;28;20093;-62
2023/08/27 11:37:21;;;;;;;3.90;0.90;;;;;;;19.45;58.87;100788.84;5097234;28;20076;-62